Portada
METAR-TAF:

METAR-TAF

Aeroports :

Tyndall Air Force Base

Panama City, Florida, Estats Units d'Amèrica

latitud: 30-04N, longitud: 085-35W, altitud: 5 m

Observació

L'informe es va fer fa 20 minuts, a les 07:56 UTC
Vent 8 kt del Nord/Nord-Est amb ràfegues de 15 kt
Temperatura 2°C
Humitat 60%
Pressió 1028 hPa
Visibilitat: 16.1 km
Cel clar

METAR: KPAM 220756Z AUTO 03008G15KT 10SM CLR 02/M05 A3035 RMK AO2 SLP281 T00181051 $

Hora: 02:16 (08:16 UTC)

Pronòstic

L'informe es va fer fa 12 hores i 7 minuts, a les 20:09 UTC
Pronòstic vàlid del 21 a les 20 UTC al 23 a les 01 UTC
Vent 9 kt del Nord amb ràfegues de 15 kt
Visibilitat: 2122 m
Cel clar
Evolucionant progressivament
l' 22 a les 17 UTC al 22 a les 18 UTC
Vent 9 kt del Nord-Est
Visibilitat: 2211 m
Cel ennuvolat a una alçada de 20000 ft

TAF: KPAM 212009Z 2120/2301 01010G15KT 9999 SKC QNH3032INS WND 35009KT AFT 2122 BECMG 2217/2218 04009KT 9999 BKN200 QNH3024INS TX08/2121Z TNM01/2212Z LAST NO AMDS AFT 2123 NEXT 2211

Observacions i pronòstics meteorològics de més de 4000 aeroports (METAR i TAF).

Les estacions disponibles són els punts grocs i vermells al mapa.

Posi el ratolí al punt desitjat per veure el nom de l'estació.

Feu clic per veure les observacions i els pronòstics meteorològics.

Per canviar el mapa: feu clic els botons verds amb una creu de color negre per apropar; al botó verd amb un guió per allunyar la imatge; o en les fletxes verdes per a mapes adjacents.


METAR-TAF: